Time;durP1;ratioP1;P1;durP2;ratioP2;P2;SDS_P1;SDS_P2;PMS_P1;PMS_P2;Temp;Humidity;BMP_temperature;BMP_pressure;BME280_temperature;BME280_humidity;BME280_pressure;Samples;Min_cycle;Max_cycle;Signal;HPM_P1;HPM_P2
2022/03/25 00:00:40;;;;;;;8.03;7.33;;;19.80;45.80;20.70;101984.00;;;;4987837;28;20826;-46
2022/03/25 00:03:06;;;;;;;8.03;7.33;;;19.80;45.90;20.70;102000.00;;;;4987889;28;20187;-48
2022/03/25 00:05:32;;;;;;;7.47;6.87;;;19.80;46.00;20.70;102017.00;;;;4987856;28;20199;-48
2022/03/25 00:07:58;;;;;;;7.47;6.80;;;19.80;46.00;20.70;102004.00;;;;4987481;28;20665;-47
2022/03/25 00:10:23;;;;;;;7.73;7.13;;;19.70;46.00;20.70;102009.00;;;;4987402;28;20191;-47
2022/03/25 00:12:49;;;;;;;7.50;6.90;;;19.70;46.10;20.70;102020.00;;;;4986192;28;20176;-47
2022/03/25 00:15:16;;;;;;;7.30;6.70;;;19.70;46.10;20.70;102013.00;;;;4987754;28;20224;-46
2022/03/25 00:17:41;;;;;;;7.37;6.67;;;19.70;46.10;20.70;102008.00;;;;4987357;28;20192;-47
2022/03/25 00:20:08;;;;;;;7.67;6.60;;;19.60;45.90;20.60;102014.00;;;;4987760;28;20547;-46
2022/03/25 00:22:34;;;;;;;6.90;6.30;;;19.70;46.00;20.60;102012.00;;;;4989697;28;20199;-47
2022/03/25 00:25:00;;;;;;;7.70;6.90;;;19.60;46.10;20.60;102015.00;;;;4991704;28;20260;-48
2022/03/25 00:27:25;;;;;;;6.73;6.23;;;19.60;46.20;20.60;102011.00;;;;4991106;28;20645;-47
2022/03/25 00:29:51;;;;;;;6.93;6.33;;;19.60;46.30;20.60;102007.00;;;;4991411;28;20181;-47
2022/03/25 00:32:17;;;;;;;6.80;6.20;;;19.60;46.20;20.50;102014.00;;;;4991639;28;20180;-47
2022/03/25 00:34:43;;;;;;;7.13;6.53;;;19.50;46.20;20.50;102011.00;;;;4992965;28;20531;-48
2022/03/25 00:37:10;;;;;;;6.53;6.03;;;19.50;46.20;20.50;102004.00;;;;4992304;28;20181;-47
2022/03/25 00:39:36;;;;;;;6.83;6.13;;;19.50;46.30;20.50;102015.00;;;;4991850;28;20180;-47
2022/03/25 00:42:03;;;;;;;6.50;5.93;;;19.50;46.20;20.50;102014.00;;;;4991778;28;20539;-47
2022/03/25 00:44:29;;;;;;;6.80;6.20;;;19.50;46.30;20.40;102011.00;;;;4990266;28;20180;-44
2022/03/25 00:46:55;;;;;;;6.33;5.83;;;19.40;46.20;20.40;101945.00;;;;4990787;28;20905;-49
2022/03/25 00:49:20;;;;;;;6.90;6.30;;;19.40;46.20;20.40;102012.00;;;;4990831;28;20183;-48
2022/03/25 00:51:46;;;;;;;6.70;6.20;;;19.40;46.20;20.40;102019.00;;;;4989826;28;20168;-48
2022/03/25 00:54:13;;;;;;;6.50;6.00;;;19.40;46.30;20.40;102010.00;;;;4990742;28;20197;-46
2022/03/25 00:56:39;;;;;;;6.40;5.80;;;19.30;46.20;20.30;102011.00;;;;4990503;28;20768;-46
2022/03/25 00:59:05;;;;;;;6.50;6.00;;;19.30;46.20;20.30;102009.00;;;;4990464;28;20242;-49
2022/03/25 01:01:30;;;;;;;6.53;5.93;;;19.30;46.20;20.30;102015.00;;;;4990638;28;20165;-46
2022/03/25 01:03:56;;;;;;;6.20;5.70;;;19.30;46.20;20.00;102022.00;;;;4990696;28;20234;-47
2022/03/25 01:06:24;;;;;;;6.50;6.00;;;19.20;46.20;20.20;102011.00;;;;4990708;28;20176;-47
2022/03/25 01:08:50;;;;;;;6.27;5.77;;;19.20;46.30;20.20;102016.00;;;;4990583;28;20203;-47
2022/03/25 01:11:16;;;;;;;6.53;5.93;;;19.20;46.30;20.20;102021.00;;;;4990053;28;20656;-46
2022/03/25 01:13:42;;;;;;;6.20;5.70;;;19.20;46.30;20.20;102014.00;;;;4990952;28;20187;-47
2022/03/25 01:16:08;;;;;;;6.40;5.90;;;19.20;46.30;20.20;102008.00;;;;4990285;28;20291;-46
2022/03/25 01:18:34;;;;;;;6.30;5.80;;;19.10;46.20;20.20;102004.00;;;;4990769;28;20279;-47
2022/03/25 01:20:59;;;;;;;6.30;5.80;;;19.10;46.20;20.20;102011.00;;;;4989238;28;20184;-48
2022/03/25 01:23:25;;;;;;;6.40;5.90;;;19.10;46.20;20.10;102004.00;;;;4990552;28;20235;-48
2022/03/25 01:25:51;;;;;;;5.80;5.40;;;19.00;46.20;20.10;102011.00;;;;4990489;28;20176;-49
2022/03/25 01:28:17;;;;;;;6.20;5.70;;;19.00;46.20;20.10;102007.00;;;;4989396;28;20227;-47
2022/03/25 01:30:43;;;;;;;6.30;5.70;;;19.10;46.40;20.10;102006.00;;;;4989485;28;20173;-47
2022/03/25 01:33:09;;;;;;;6.40;5.90;;;19.00;46.20;20.10;102000.00;;;;4990284;28;20637;-47
2022/03/25 01:35:36;;;;;;;6.50;6.00;;;19.00;46.30;20.10;102003.00;;;;4989761;28;20212;-46
2022/03/25 01:38:01;;;;;;;6.33;5.83;;;19.00;46.30;20.00;101991.00;;;;4989712;28;20206;-48
2022/03/25 01:40:27;;;;;;;6.57;5.97;;;19.00;46.30;20.00;102001.00;;;;4988580;28;20722;-46
2022/03/25 01:42:53;;;;;;;6.00;5.50;;;19.00;46.40;20.00;101990.00;;;;4990068;28;20171;-47
2022/03/25 01:45:33;;;;;;;5.90;5.40;;;18.90;46.30;20.00;101997.00;;;;4989557;28;20173;-48
2022/03/25 01:47:59;;;;;;;6.30;5.80;;;18.90;46.40;20.00;102009.00;;;;4989887;28;20188;-48
2022/03/25 01:50:25;;;;;;;6.13;5.63;;;18.90;46.30;20.00;101994.00;;;;4989791;28;20187;-48
2022/03/25 01:52:51;;;;;;;6.50;6.00;;;18.90;46.50;20.00;101980.00;;;;4989472;28;20168;-48
2022/03/25 01:55:24;;;;;;;6.00;5.50;;;18.90;46.50;19.90;101995.00;;;;4988215;28;20314;-47
2022/03/25 01:57:50;;;;;;;6.47;5.87;;;18.80;46.40;19.90;101987.00;;;;4989396;28;20200;-48
2022/03/25 02:00:17;;;;;;;6.20;5.70;;;18.80;46.30;19.90;101994.00;;;;4989483;28;20589;-48
2022/03/25 02:02:43;;;;;;;6.23;5.73;;;18.80;46.40;19.90;101997.00;;;;4989753;28;20168;-47
2022/03/25 02:05:10;;;;;;;6.43;5.93;;;18.70;46.30;19.90;101997.00;;;;4989462;28;20227;-48
2022/03/25 02:07:36;;;;;;;6.40;5.80;;;18.70;46.40;19.80;101998.00;;;;4989518;28;20224;-46
2022/03/25 02:10:01;;;;;;;6.47;5.97;;;18.70;46.40;19.80;101983.00;;;;4989587;28;20631;-48
2022/03/25 02:12:28;;;;;;;6.73;6.13;;;18.70;46.40;19.80;101971.00;;;;4989846;28;20183;-48
2022/03/25 02:14:57;;;;;;;6.77;6.17;;;18.70;46.40;19.80;101992.00;;;;4989910;28;20286;-47
2022/03/25 02:17:23;;;;;;;6.20;5.70;;;18.70;46.30;19.80;101997.00;;;;4989181;28;20184;-48
2022/03/25 02:19:49;;;;;;;6.10;5.60;;;18.70;46.40;19.80;101989.00;;;;4987914;28;20729;-48
2022/03/25 02:22:14;;;;;;;6.67;6.17;;;18.70;46.30;19.70;101995.00;;;;4989039;28;20252;-48
2022/03/25 02:24:40;;;;;;;6.03;5.53;;;18.60;46.30;19.70;101994.00;;;;4989064;28;20634;-47
2022/03/25 02:27:06;;;;;;;5.90;5.47;;;18.60;46.30;19.70;101993.00;;;;4988760;28;20180;-48
2022/03/25 02:29:33;;;;;;;6.47;5.97;;;18.60;46.30;19.70;101992.00;;;;4987966;28;20259;-48
2022/03/25 02:31:59;;;;;;;6.50;6.00;;;18.60;46.40;19.70;102007.00;;;;4988998;28;20587;-48
2022/03/25 02:34:24;;;;;;;6.60;6.07;;;18.60;46.30;19.60;102001.00;;;;4989090;28;20172;-47
2022/03/25 02:36:50;;;;;;;6.10;5.60;;;18.50;46.30;19.60;101994.00;;;;4987185;28;20208;-48
2022/03/25 02:39:17;;;;;;;6.27;5.80;;;18.60;46.30;19.60;102001.00;;;;4988738;28;20194;-47
2022/03/25 02:41:43;;;;;;;6.27;5.77;;;18.50;46.30;19.60;101995.00;;;;4989066;28;20179;-46
2022/03/25 02:44:10;;;;;;;6.17;5.67;;;18.50;46.20;19.60;101993.00;;;;4988604;28;20788;-47
2022/03/25 02:46:36;;;;;;;6.50;6.00;;;18.50;46.30;19.60;101998.00;;;;4988527;28;20183;-47
2022/03/25 02:49:02;;;;;;;6.47;5.97;;;18.50;46.30;19.50;101994.00;;;;4988221;28;20204;-47
2022/03/25 02:51:27;;;;;;;6.10;5.60;;;18.50;46.40;19.50;101994.00;;;;4988586;28;20579;-47
2022/03/25 02:53:53;;;;;;;5.93;5.43;;;18.40;46.20;19.50;101999.00;;;;4988614;28;20172;-49
2022/03/25 02:56:19;;;;;;;6.23;5.73;;;18.40;46.40;19.50;102001.00;;;;4987255;28;20192;-47
2022/03/25 02:58:45;;;;;;;6.63;6.13;;;18.50;46.30;19.50;102010.00;;;;4987349;28;20192;-48
2022/03/25 03:01:12;;;;;;;6.13;5.63;;;18.40;46.30;19.50;101999.00;;;;4987334;28;20167;-47
2022/03/25 03:03:38;;;;;;;6.40;5.90;;;18.40;46.30;19.40;102009.00;;;;4987514;28;20231;-47
2022/03/25 03:06:05;;;;;;;6.23;5.73;;;18.40;46.40;19.40;102010.00;;;;4988626;28;20188;-48
2022/03/25 03:08:31;;;;;;;6.20;5.70;;;18.30;46.30;19.40;102007.00;;;;4988771;28;20196;-48
2022/03/25 03:10:57;;;;;;;6.00;5.50;;;18.40;46.40;19.40;102006.00;;;;4988764;28;20179;-47
2022/03/25 03:13:23;;;;;;;6.03;5.53;;;18.30;46.40;19.40;102011.00;;;;4988723;28;20176;-47
2022/03/25 03:15:49;;;;;;;6.03;5.53;;;18.30;46.30;19.40;102014.00;;;;4988491;28;20275;-47
2022/03/25 03:18:15;;;;;;;6.73;6.23;;;18.30;46.30;19.40;101994.00;;;;4988002;28;20188;-46
2022/03/25 03:20:41;;;;;;;6.63;6.13;;;18.30;46.40;19.30;102016.00;;;;4986972;28;20321;-47
2022/03/25 03:23:07;;;;;;;6.43;5.83;;;18.30;46.40;19.30;102018.00;;;;4988101;28;20660;-47
2022/03/25 03:25:34;;;;;;;6.47;5.97;;;18.30;46.50;19.30;102011.00;;;;4987978;28;20247;-47
2022/03/25 03:28:00;;;;;;;6.23;5.73;;;18.20;46.40;19.30;102019.00;;;;4987865;28;20192;-47
2022/03/25 03:30:25;;;;;;;6.33;5.83;;;18.20;46.50;19.30;102010.00;;;;4987830;28;20659;-46
2022/03/25 03:32:55;;;;;;;6.10;5.60;;;18.20;46.50;19.30;102008.00;;;;4986857;28;20212;-47
2022/03/25 03:35:21;;;;;;;6.30;5.80;;;18.20;46.60;19.20;102013.00;;;;4988104;28;20282;-47
2022/03/25 03:37:47;;;;;;;5.87;5.40;;;18.20;46.60;19.20;102025.00;;;;4988027;28;20333;-48
2022/03/25 03:40:17;;;;;;;6.13;5.50;;;18.20;46.50;19.20;102020.00;;;;4987779;28;20167;-48
2022/03/25 03:42:43;;;;;;;6.03;5.53;;;18.20;46.90;19.20;102008.00;;;;4988085;28;20566;-46
2022/03/25 03:45:09;;;;;;;6.23;5.73;;;18.10;46.90;19.20;102011.00;;;;4987884;28;20270;-46
2022/03/25 03:47:35;;;;;;;6.60;6.10;;;18.10;47.00;19.20;102020.00;;;;4988803;28;20202;-47
2022/03/25 03:50:03;;;;;;;6.37;5.87;;;18.10;47.30;19.20;102024.00;;;;4989817;28;20168;-47
2022/03/25 03:52:29;;;;;;;6.03;5.53;;;18.10;47.30;19.10;102005.00;;;;4989157;28;20175;-47
2022/03/25 03:54:55;;;;;;;6.40;5.80;;;18.10;47.30;19.10;102011.00;;;;4988469;28;20579;-48
2022/03/25 03:57:21;;;;;;;6.40;5.90;;;18.10;47.30;19.10;102007.00;;;;4989470;28;20203;-47
2022/03/25 03:59:46;;;;;;;6.00;5.50;;;18.10;47.30;19.10;102021.00;;;;4992122;28;20194;-47
2022/03/25 04:02:12;;;;;;;6.13;5.63;;;18.00;47.10;19.10;102020.00;;;;4992066;28;20172;-47
2022/03/25 04:04:38;;;;;;;6.13;5.63;;;18.00;47.10;19.10;102012.00;;;;4992136;28;20179;-47
2022/03/25 04:07:03;;;;;;;6.40;5.90;;;18.00;47.10;19.00;102011.00;;;;4991664;28;20222;-47
2022/03/25 04:09:29;;;;;;;6.00;5.50;;;18.00;47.10;19.00;102013.00;;;;4991828;28;20703;-48
2022/03/25 04:11:55;;;;;;;6.27;5.77;;;18.00;47.30;19.00;102007.00;;;;4990405;28;20522;-47
2022/03/25 04:14:21;;;;;;;6.20;5.70;;;18.00;47.30;19.00;102012.00;;;;4991606;28;20672;-46
2022/03/25 04:16:47;;;;;;;6.50;5.90;;;17.90;47.20;19.00;102022.00;;;;4991655;28;20237;-48
2022/03/25 04:19:13;;;;;;;6.30;5.63;;;18.00;47.20;19.00;102017.00;;;;4991660;28;20195;-47
2022/03/25 04:21:39;;;;;;;6.53;6.00;;;18.00;47.60;18.90;102024.00;;;;4991571;28;20253;-47
2022/03/25 04:24:06;;;;;;;6.00;5.50;;;18.00;47.10;18.90;102012.00;;;;4991386;28;20170;-47
2022/03/25 04:26:31;;;;;;;6.77;5.60;;;17.90;47.00;18.90;101999.00;;;;5006324;28;20660;-47
2022/03/25 04:28:57;;;;;;;6.13;5.43;;;17.90;46.90;18.90;102026.00;;;;4991484;28;20199;-48
2022/03/25 04:31:23;;;;;;;9.33;5.50;;;17.90;46.80;18.90;102021.00;;;;4991052;28;20182;-46
2022/03/25 04:33:48;;;;;;;6.27;5.77;;;17.90;46.90;18.90;102025.00;;;;4991273;28;20204;-46
2022/03/25 04:36:14;;;;;;;6.67;5.70;;;17.90;47.00;18.90;102001.00;;;;4990821;28;20665;-47
2022/03/25 04:38:41;;;;;;;6.80;6.20;;;17.80;47.00;18.80;102024.00;;;;4989736;28;20200;-48
2022/03/25 04:41:09;;;;;;;8.07;7.37;;;17.80;46.90;18.80;102035.00;;;;4991063;28;20650;-47
2022/03/25 04:43:36;;;;;;;8.43;7.50;;;17.80;46.90;18.80;102024.00;;;;4991408;28;20179;-47
2022/03/25 04:46:02;;;;;;;8.33;7.43;;;17.70;46.80;18.80;102026.00;;;;4990895;28;20250;-48
2022/03/25 04:48:28;;;;;;;9.13;8.33;;;17.70;46.70;18.80;102030.00;;;;4990969;28;20186;-48
2022/03/25 04:50:54;;;;;;;9.63;8.67;;;17.70;46.70;18.70;102017.00;;;;4990946;28;20399;-47
2022/03/25 04:53:20;;;;;;;10.37;8.90;;;17.60;46.40;18.70;102023.00;;;;4990973;28;20367;-47
2022/03/25 04:55:45;;;;;;;9.40;8.50;;;17.60;46.40;18.70;102025.00;;;;4990773;28;20581;-47
2022/03/25 04:58:11;;;;;;;9.67;8.77;;;17.60;46.40;18.60;102021.00;;;;4990851;28;20517;-46
2022/03/25 05:00:38;;;;;;;10.83;9.77;;;17.60;46.30;18.60;102028.00;;;;4990879;28;20185;-46
2022/03/25 05:03:04;;;;;;;10.50;9.50;;;17.60;46.30;18.60;102028.00;;;;4991194;28;20162;-46
2022/03/25 05:05:31;;;;;;;11.53;9.67;;;17.50;46.20;18.60;102033.00;;;;4990731;28;20228;-46
2022/03/25 05:07:57;;;;;;;10.33;9.37;;;17.60;46.00;18.60;102032.00;;;;4986697;28;20216;-46
2022/03/25 05:10:23;;;;;;;10.50;9.10;;;17.50;45.90;18.60;102028.00;;;;4990107;28;20288;-47
2022/03/25 05:12:49;;;;;;;10.40;9.37;;;17.50;45.90;18.50;102035.00;;;;4990198;28;20549;-47
2022/03/25 05:15:14;;;;;;;10.80;9.83;;;17.50;46.00;18.50;102028.00;;;;4989920;28;20208;-47
2022/03/25 05:17:47;;;;;;;11.33;9.43;;;17.40;45.80;18.50;102039.00;;;;4989698;28;20209;-46
2022/03/25 05:20:15;;;;;;;11.40;10.23;;;17.40;45.90;18.50;102036.00;;;;4990030;28;20242;-46
2022/03/25 05:22:41;;;;;;;11.63;10.53;;;17.40;45.80;18.50;102035.00;;;;4989960;28;20225;-47
2022/03/25 05:25:08;;;;;;;11.97;10.90;;;17.40;45.80;18.40;102038.00;;;;4989787;28;20193;-48
2022/03/25 05:27:46;;;;;;;11.33;10.33;;;17.40;45.70;18.40;102039.00;;;;4989368;28;20543;-45
2022/03/25 05:30:12;;;;;;;12.00;10.80;;;17.40;45.70;18.40;102035.00;;;;4990030;28;20263;-46
2022/03/25 05:32:39;;;;;;;12.00;10.80;;;17.40;45.50;18.40;102044.00;;;;4989689;28;20586;-45
2022/03/25 05:35:06;;;;;;;12.17;10.97;;;17.40;45.50;18.30;102048.00;;;;4990308;28;20514;-46
2022/03/25 05:37:34;;;;;;;11.93;10.80;;;17.30;45.40;18.30;102049.00;;;;4989532;28;20467;-46
2022/03/25 05:39:59;;;;;;;11.60;10.47;;;17.30;45.50;18.30;102061.00;;;;4989428;28;20164;-47
2022/03/25 05:42:25;;;;;;;11.97;10.77;;;17.30;45.50;18.30;102048.00;;;;4989815;28;20301;-47
2022/03/25 05:44:51;;;;;;;11.87;10.67;;;17.30;45.50;18.30;102059.00;;;;4989526;28;20173;-47
2022/03/25 05:47:17;;;;;;;12.17;10.27;;;17.30;45.60;18.30;102051.00;;;;4989584;28;20550;-47
2022/03/25 05:49:43;;;;;;;12.37;9.80;;;17.20;45.50;18.30;102059.00;;;;4989193;28;20168;-47
2022/03/25 05:52:08;;;;;;;10.90;9.80;;;17.30;45.70;18.20;102057.00;;;;4989476;28;20169;-48
2022/03/25 05:54:34;;;;;;;9.90;9.00;;;17.30;45.60;18.20;102045.00;;;;4989422;28;20244;-47
2022/03/25 05:57:00;;;;;;;10.57;9.47;;;17.20;45.70;18.20;102066.00;;;;4989016;28;20214;-46
2022/03/25 05:59:25;;;;;;;10.83;9.40;;;17.20;45.50;18.20;102069.00;;;;4989012;28;20164;-46
2022/03/25 06:01:51;;;;;;;10.13;9.10;;;17.20;45.60;18.20;102058.00;;;;4989467;28;20174;-47
2022/03/25 06:04:17;;;;;;;9.17;8.23;;;17.20;45.50;18.20;102066.00;;;;4989082;28;20165;-47
2022/03/25 06:06:42;;;;;;;9.53;8.63;;;17.20;45.60;18.20;102073.00;;;;4988881;28;20233;-48
2022/03/25 06:09:08;;;;;;;8.73;7.93;;;17.20;45.60;18.20;102082.00;;;;4988455;28;20204;-48
2022/03/25 06:11:34;;;;;;;9.13;8.33;;;17.20;45.60;18.20;102069.00;;;;5004780;28;20177;-47
2022/03/25 06:14:00;;;;;;;9.33;8.53;;;17.10;45.60;18.10;102073.00;;;;4989516;28;20204;-47
2022/03/25 06:16:26;;;;;;;8.70;8.00;;;17.10;45.50;18.10;102081.00;;;;4989385;28;20680;-47
2022/03/25 06:18:52;;;;;;;9.13;8.33;;;17.10;45.60;18.10;102016.00;;;;4988511;28;20196;-47
2022/03/25 06:21:20;;;;;;;9.33;8.43;;;17.10;45.50;18.10;102074.00;;;;4988072;28;20173;-48
2022/03/25 06:23:46;;;;;;;8.60;7.83;;;17.00;45.50;18.10;102061.00;;;;4989153;28;20663;-46
2022/03/25 06:26:11;;;;;;;8.80;7.97;;;17.10;45.50;18.00;102070.00;;;;4989255;28;20280;-46
2022/03/25 06:28:37;;;;;;;8.20;7.40;;;17.10;45.60;18.00;102065.00;;;;4989083;28;20201;-47
2022/03/25 06:31:03;;;;;;;8.17;7.47;;;17.10;45.50;18.00;102081.00;;;;4988657;28;20546;-48
2022/03/25 06:33:28;;;;;;;8.27;7.50;;;17.00;45.50;18.00;102067.00;;;;4988934;28;20181;-47
2022/03/25 06:35:54;;;;;;;9.23;7.00;;;17.00;45.60;17.80;102075.00;;;;4988143;28;20243;-46
2022/03/25 06:38:20;;;;;;;7.83;7.13;;;17.00;45.50;18.00;102080.00;;;;4987954;28;20282;-46
2022/03/25 06:40:46;;;;;;;8.10;7.40;;;17.00;45.60;18.00;102074.00;;;;4988976;28;20383;-47
2022/03/25 06:43:11;;;;;;;7.90;7.10;;;17.00;45.50;17.90;102077.00;;;;4988791;28;20173;-47
2022/03/25 06:45:37;;;;;;;7.90;7.20;;;17.00;45.50;17.90;102078.00;;;;4988478;28;20187;-47
2022/03/25 06:48:03;;;;;;;7.10;6.50;;;16.90;45.50;17.70;102073.00;;;;5002954;28;20196;-47
2022/03/25 06:50:29;;;;;;;7.67;6.97;;;16.90;45.50;17.90;102087.00;;;;4988553;28;20176;-47
2022/03/25 06:52:57;;;;;;;7.37;6.67;;;16.90;45.50;17.90;102088.00;;;;4988159;28;20669;-47
2022/03/25 06:55:23;;;;;;;7.57;6.97;;;16.90;45.50;17.90;102079.00;;;;4988524;28;20231;-46
2022/03/25 06:57:50;;;;;;;7.30;6.63;;;16.90;45.50;17.90;102087.00;;;;4988673;28;20347;-48
2022/03/25 07:00:17;;;;;;;6.90;6.30;;;16.90;45.50;17.90;102086.00;;;;4992117;28;20169;-47
2022/03/25 07:02:43;;;;;;;7.37;6.77;;;16.90;45.50;17.80;102088.00;;;;4991876;28;20535;-47
2022/03/25 07:05:13;;;;;;;7.20;6.60;;;16.80;45.60;17.80;102086.00;;;;4990301;28;20177;-47
2022/03/25 07:07:40;;;;;;;7.33;6.73;;;16.90;45.50;17.80;102091.00;;;;4988609;28;20204;-47
2022/03/25 07:10:09;;;;;;;7.10;6.50;;;16.80;45.40;17.80;102087.00;;;;4988075;28;20289;-45
2022/03/25 07:12:38;;;;;;;7.10;6.47;;;16.80;45.40;17.80;102090.00;;;;4988294;28;20645;-46
2022/03/25 07:15:05;;;;;;;6.77;6.17;;;16.80;45.40;17.80;102090.00;;;;4987827;28;20556;-47
2022/03/25 07:17:31;;;;;;;7.00;6.40;;;16.80;45.40;17.80;102098.00;;;;4987888;28;20383;-46
2022/03/25 07:19:57;;;;;;;6.97;6.37;;;16.80;45.40;17.80;102087.00;;;;4987552;28;20175;-46
2022/03/25 07:22:23;;;;;;;6.77;6.17;;;16.80;45.40;17.70;102095.00;;;;4987950;28;20235;-46
2022/03/25 07:24:48;;;;;;;6.90;6.30;;;16.80;45.50;17.70;102100.00;;;;4988270;28;20176;-48
2022/03/25 07:27:14;;;;;;;6.80;6.20;;;16.80;45.50;17.70;102105.00;;;;4987672;28;20168;-48
2022/03/25 07:29:40;;;;;;;6.87;6.27;;;16.80;45.50;17.70;102107.00;;;;4987833;28;20534;-47
2022/03/25 07:32:06;;;;;;;6.20;5.70;;;16.70;45.50;17.70;102104.00;;;;4987488;28;20168;-47
2022/03/25 07:34:34;;;;;;;6.70;6.10;;;16.70;45.50;17.70;102101.00;;;;4988019;28;20172;-46
2022/03/25 07:36:59;;;;;;;6.20;5.70;;;16.70;45.50;17.70;102101.00;;;;4987647;28;20283;-46
2022/03/25 07:39:25;;;;;;;6.23;5.73;;;16.70;45.50;17.60;102113.00;;;;4987705;28;20177;-46
2022/03/25 07:41:51;;;;;;;6.30;5.80;;;16.70;45.60;17.40;102108.00;;;;4987809;28;20583;-46
2022/03/25 07:44:16;;;;;;;5.93;5.43;;;16.70;45.60;17.60;102111.00;;;;4987854;28;20180;-47
2022/03/25 07:46:42;;;;;;;6.80;6.07;;;16.70;45.60;17.60;102109.00;;;;4988056;28;20176;-48
2022/03/25 07:49:08;;;;;;;6.47;5.97;;;16.70;45.60;17.60;102118.00;;;;4987222;28;20567;-46
2022/03/25 07:51:34;;;;;;;6.30;5.80;;;16.70;45.70;17.60;102096.00;;;;4987732;28;20687;-48
2022/03/25 07:53:59;;;;;;;6.50;5.90;;;16.60;45.60;17.60;102113.00;;;;4987131;28;20168;-46
2022/03/25 07:56:25;;;;;;;5.83;5.43;;;16.70;45.70;17.60;102108.00;;;;4987333;28;20192;-46
2022/03/25 07:58:51;;;;;;;6.73;6.23;;;16.70;45.70;17.60;102126.00;;;;4987098;28;20193;-48
2022/03/25 08:01:16;;;;;;;6.50;6.00;;;16.70;45.80;17.30;102054.00;;;;4987714;28;20438;-46
2022/03/25 08:03:42;;;;;;;6.77;6.17;;;16.70;45.80;17.60;102118.00;;;;4987953;28;20595;-47
2022/03/25 08:06:09;;;;;;;6.57;6.07;;;16.60;45.80;17.50;102119.00;;;;4987233;28;20521;-46
2022/03/25 08:08:35;;;;;;;6.50;5.90;;;16.60;45.80;17.50;102132.00;;;;4987254;28;20556;-46
2022/03/25 08:11:00;;;;;;;6.37;5.87;;;16.60;45.90;17.50;102125.00;;;;4987692;28;20164;-46
2022/03/25 08:13:26;;;;;;;6.63;6.13;;;16.60;45.90;17.50;102134.00;;;;4987658;28;20538;-47
2022/03/25 08:15:52;;;;;;;6.83;6.17;;;16.60;46.00;17.50;102136.00;;;;4987025;28;20259;-49
2022/03/25 08:18:18;;;;;;;6.17;5.67;;;16.60;46.10;17.50;102141.00;;;;4987172;28;20279;-47
2022/03/25 08:20:45;;;;;;;6.90;6.30;;;16.60;46.10;17.50;102133.00;;;;4987141;28;20172;-48
2022/03/25 08:28:50;;;;;;;7.23;6.57;;;16.60;46.30;17.50;102134.00;;;;4987199;28;20258;-47
2022/03/25 08:31:16;;;;;;;6.20;5.70;;;16.60;46.30;17.40;102140.00;;;;4987259;28;20180;-48
2022/03/25 08:33:42;;;;;;;6.10;5.60;;;16.60;46.40;17.40;102135.00;;;;4987500;28;20177;-48
2022/03/25 08:36:08;;;;;;;6.47;5.67;;;16.60;46.40;17.20;102139.00;;;;4987091;28;20200;-47
2022/03/25 08:38:34;;;;;;;6.37;5.87;;;16.60;46.50;17.40;102141.00;;;;4986711;28;20196;-47
2022/03/25 08:40:59;;;;;;;6.70;6.10;;;16.60;46.50;17.40;102152.00;;;;4987238;28;20175;-48
2022/03/25 08:43:26;;;;;;;6.20;5.70;;;16.50;46.40;17.40;102138.00;;;;5003757;28;20649;-48
2022/03/25 08:45:52;;;;;;;6.23;5.73;;;16.60;46.60;17.40;102141.00;;;;4990684;28;20706;-47
2022/03/25 08:48:17;;;;;;;6.50;5.90;;;16.60;46.70;17.40;102137.00;;;;4990375;28;20257;-45
2022/03/25 08:50:43;;;;;;;6.47;5.87;;;16.50;46.60;17.40;102138.00;;;;4990225;28;20535;-48
2022/03/25 08:53:09;;;;;;;6.30;5.70;;;16.50;46.70;17.40;102140.00;;;;4990739;28;20186;-46
2022/03/25 08:55:35;;;;;;;6.70;6.10;;;16.60;46.70;17.20;102143.00;;;;4990653;28;20211;-47
2022/03/25 08:58:00;;;;;;;6.20;5.63;;;16.60;47.40;17.50;102131.00;;;;4990477;28;20196;-46
2022/03/25 09:00:26;;;;;;;6.60;6.00;;;16.60;46.80;17.50;102106.00;;;;4967234;28;20176;-48
2022/03/25 09:02:52;;;;;;;7.07;6.07;;;16.60;46.50;17.50;102132.00;;;;4903524;28;20692;-45
2022/03/25 09:05:18;;;;;;;6.30;5.70;;;16.60;47.00;17.50;102137.00;;;;4988745;28;20185;-47
2022/03/25 09:07:44;;;;;;;6.33;5.80;;;16.60;47.10;17.50;102116.00;;;;4998897;28;20629;-46
2022/03/25 09:10:14;;;;;;;6.53;5.83;;;16.60;47.10;17.50;102138.00;;;;5008124;28;20241;-47
2022/03/25 09:12:40;;;;;;;7.37;6.20;;;16.50;47.30;17.50;102119.00;;;;5009105;28;20183;-47
2022/03/25 09:15:07;;;;;;;6.07;5.57;;;16.50;47.30;17.50;102125.00;;;;5009638;28;20179;-46
2022/03/25 09:17:33;;;;;;;5.90;5.40;;;16.50;47.40;17.40;102126.00;;;;5009712;28;20203;-48
2022/03/25 09:19:58;;;;;;;6.13;5.53;;;16.50;47.40;17.40;102133.00;;;;4999690;28;20645;-46
2022/03/25 09:22:24;;;;;;;6.17;5.67;;;16.40;47.60;17.40;102138.00;;;;4990190;28;20207;-47
2022/03/25 09:24:50;;;;;;;7.40;5.57;;;16.40;47.80;17.40;102137.00;;;;4989909;28;20176;-46
2022/03/25 09:27:16;;;;;;;6.43;5.83;;;16.40;48.30;17.40;102140.00;;;;4989816;28;20276;-47
2022/03/25 09:29:41;;;;;;;6.03;5.53;;;16.40;48.20;17.40;102130.00;;;;4989237;28;20180;-48
2022/03/25 09:32:08;;;;;;;6.30;5.17;;;16.40;48.20;17.40;102133.00;;;;4988992;28;20207;-45
2022/03/25 09:37:18;;;;;;;5.70;5.20;;;16.40;48.40;17.30;102134.00;;;;4989281;28;20195;-47
2022/03/25 09:39:44;;;;;;;5.50;5.00;;;16.40;48.50;17.30;102133.00;;;;4989890;28;20164;-48
2022/03/25 09:42:10;;;;;;;7.17;5.27;;;16.40;49.10;17.30;102136.00;;;;4989150;28;20176;-48
2022/03/25 09:44:39;;;;;;;6.43;5.23;;;16.40;48.70;17.30;102144.00;;;;4988107;28;20636;-46
2022/03/25 09:47:05;;;;;;;5.73;5.23;;;16.40;48.90;17.30;102127.00;;;;4989278;28;20784;-47
2022/03/25 09:49:30;;;;;;;5.93;5.23;;;16.40;48.70;17.30;102107.00;;;;4988542;28;20172;-46
2022/03/25 09:51:56;;;;;;;5.90;5.30;;;16.40;48.90;17.30;102131.00;;;;4988187;28;20184;-48
2022/03/25 09:54:22;;;;;;;6.47;5.40;;;16.40;49.00;17.30;102117.00;;;;4988438;28;20175;-47
2022/03/25 09:56:48;;;;;;;6.33;5.20;;;16.40;48.90;17.30;102143.00;;;;5000981;28;20219;-47
2022/03/25 09:59:17;;;;;;;6.53;5.60;;;16.40;48.90;17.30;102125.00;;;;5008984;28;20192;-47
2022/03/25 10:01:43;;;;;;;8.73;5.93;;;16.50;48.90;17.30;102102.00;;;;4884738;28;20248;-47
2022/03/25 10:04:12;;;;;;;8.50;5.70;;;16.50;48.90;17.30;102128.00;;;;4970395;28;20201;-47
2022/03/25 10:06:47;;;;;;;7.07;5.70;;;16.50;48.90;17.30;102134.00;;;;4952837;28;20173;-47
2022/03/25 10:09:21;;;;;;;7.23;5.30;;;16.60;49.00;17.30;102140.00;;;;4970020;28;20212;-47
2022/03/25 10:11:47;;;;;;;9.47;5.90;;;16.60;48.90;17.30;102135.00;;;;4972078;28;20181;-47
2022/03/25 10:14:24;;;;;;;7.73;5.80;;;16.50;48.80;17.30;102135.00;;;;4974837;28;20818;-47
2022/03/25 10:16:51;;;;;;;24.30;6.30;;;16.50;49.00;17.30;102138.00;;;;4989331;28;20203;-48
2022/03/25 10:19:19;;;;;;;8.03;5.57;;;16.60;49.60;17.30;102139.00;;;;4989758;28;20285;-48
2022/03/25 10:22:00;;;;;;;9.00;5.37;;;16.60;49.40;17.30;102130.00;;;;4989205;28;20175;-48
2022/03/25 10:24:44;;;;;;;9.77;5.70;;;16.60;49.40;17.30;102134.00;;;;4989012;28;20184;-46
2022/03/25 10:27:09;;;;;;;9.70;5.80;;;16.60;49.30;17.30;102138.00;;;;4984476;28;20795;-47
2022/03/25 10:29:35;;;;;;;8.93;5.70;;;16.60;49.20;17.30;102145.00;;;;4989583;28;20272;-48
2022/03/25 10:32:09;;;;;;;8.67;5.30;;;16.60;49.30;17.30;102132.00;;;;4989135;28;20184;-48
2022/03/25 10:34:37;;;;;;;7.10;5.43;;;16.60;49.30;17.30;102134.00;;;;4989193;28;20176;-48
2022/03/25 10:37:04;;;;;;;6.93;5.37;;;16.70;49.40;17.40;102136.00;;;;4988632;28;20376;-46
2022/03/25 10:39:30;;;;;;;7.60;5.27;;;16.60;50.00;17.40;102132.00;;;;4988900;28;20260;-48
2022/03/25 10:42:07;;;;;;;7.70;5.53;;;16.70;49.40;17.40;102134.00;;;;4987822;28;20670;-45
2022/03/25 10:44:38;;;;;;;6.33;5.47;;;16.70;50.20;17.40;102127.00;;;;4989409;28;20799;-48
2022/03/25 10:47:15;;;;;;;7.53;5.60;;;16.70;49.50;17.40;102144.00;;;;4988712;28;20537;-48
2022/03/25 10:49:48;;;;;;;6.93;5.33;;;16.70;49.60;17.40;102131.00;;;;4988677;28;20168;-46